Tiempo atmosférico en la estación meteorológica de Astorga, León (919 m.)



Fecha
DESCASC
Temp. máxima en grados centígrados (hora)
DESCASC
Temp. mínima en grados centígrados (hora)
DESCASC
Temp. media en grados centígrados
DESCASC
Racha de viento máxima en m/sg (hora)
DESCASC
Velocidad máxima media en intervalos de 10 minutos(hora)
DESCASC
Precipitaciones diarias en mm
DESCASC
Precipitaciones de 00:00 a 06:00 en mm
DESCASC
Precipitaciones de 06:00 a 12:00 en mm
DESCASC
Precipitaciones de 12:00 a 18:00 en mm
DESCASC
Precipitaciones de 18:00 a 24:00 en mm
DESCASC
27-07-2019 22.9 (19:00) 11.8 (00:00) 17.3 9.44 (17:10) 6.11 (17:10) 3 0.2 2 0.8 0
09-08-2019 25.7 (17:20) 15.2 (00:00) 20.5 13.89 (04:50) 9.17 (04:50) 0.8 0.2 0.6 0 0
24-08-2019 32.1 (15:40) 12.6 (00:00) 22.3 7.22 (19:40) 5 (19:40) 0 0 0 0 0
26-07-2019 24.9 (18:10) 11.5 (00:00) 18.2 10.28 (20:10) 6.39 (17:10) 0 0 0 0 0
23-08-2019 32.9 (18:30) 8.7 (00:00) 20.8 7.78 (17:50) 5.28 (17:50) 0 0 0 0 0
22-08-2019 31 (17:30) 9 (00:00) 20 6.11 (18:30) 3.89 (19:30) 0 0 0 0 0
21-08-2019 31.1 (18:10) 9.8 (00:00) 20.5 6.11 (19:30) 3.61 (19:30) 0 0 0 0 0
20-08-2019 24.7 (18:40) 7.9 (00:00) 16.3 7.78 (17:30) 4.44 (14:40) 0 0 0 0 0
19-08-2019 25.2 (16:40) 9.1 (00:00) 17.2 6.39 (22:10) 3.89 (21:40) 0 0 0 0 0
18-08-2019 24.5 (16:50) 13.2 (00:00) 18.8 10.83 (18:40) 6.67 (18:40) 7 0 0 7 0
17-08-2019 32.9 (16:50) 13.8 (00:00) 23.4 10.28 (17:50) 6.39 (18:10) 0 0 0 0 0
16-08-2019 32.9 (16:40) 11.3 (00:00) 22.1 9.72 (20:50) 5.83 (17:30) 0 0 0 0 0
15-08-2019 30.4 (18:20) 12.4 (00:00) 21.4 7.78 (19:10) 5.28 (19:10) 0 0 0 0 0
14-08-2019 29.6 (16:20) 10.5 (00:00) 20.1 11.94 (16:40) 7.22 (16:30) 0 0 0 0 0
13-08-2019 25.9 (20:10) 6.2 (00:00) 16 7.78 (15:00) 4.44 (15:40) 0 0 0 0 0
12-08-2019 23 (16:20) 6.5 (00:00) 14.8 8.89 (16:10) 4.17 (14:10) 0 0 0 0 0
11-08-2019 22.4 (16:20) 11.5 (00:00) 16.9 13.33 (17:50) 8.06 (17:50) 0 0 0 0 0
10-08-2019 26 (17:50) 11.2 (00:00) 18.6 8.61 (18:50) 5.28 (18:50) 0 0 0 0 0
08-08-2019 25.6 (16:30) 15.7 (00:00) 20.7 16.11 (16:30) 11.11 (15:20) 0 0 0 0 0
07-08-2019 24 (15:20) 15 (00:00) 19.5 11.11 (13:40) 6.39 (13:50) 1.4 0 0 0 1.4
06-08-2019 28.6 (16:30) 14.3 (00:00) 21.5 10.83 (19:00) 6.39 (18:40) 0 0 0 0 0
05-08-2019 31.5 (17:40) 12.9 (00:00) 22.2 8.89 (18:20) 5.28 (18:10) 0 0 0 0 0
04-08-2019 31.4 (17:10) 14.3 (00:00) 22.8 9.72 (19:10) 5.83 (18:40) 0 0 0 0 0
03-08-2019 32.9 (15:40) 13 (00:00) 23 8.61 (19:20) 5.28 (19:20) 0.8 0 0 0.8 0
02-08-2019 31.2 (18:20) 11.4 (00:00) 21.3 9.44 (16:20) 4.17 (19:00) 0 0 0 0 0
01-08-2019 29.2 (17:50) 10.4 (00:00) 19.8 6.67 (21:40) 4.17 (20:40) 0 0 0 0 0
31-07-2019 27.2 (18:30) 9 (00:00) 18.1 6.39 (15:30) 3.61 (01:40) 0 0 0 0 0
30-07-2019 24.7 (18:10) 8 (00:00) 16.4 9.17 (17:10) 5.28 (18:40) 0 0 0 0 0
29-07-2019 22.3 (17:00) 12.5 (00:00) 17.4 14.17 (15:20) 9.17 (15:20) 0 0 0 0 0
28-07-2019 27.3 (19:10) 6.6 (00:00) 16.9 7.78 (15:00) 4.44 (17:00) 0 0 0 0 0

Gráficas

Temp. máximas Temp. mínimas Temp. medias Precipitaciones Rachas de viento máximas Velocidades máximas media en intervalos de 10 minutos

Datos horarios

Fecha y hora oficial Temperatura (ºC) Velocidad del viento (km/h) Dirección del viento Racha (km/h) Dirección de racha Precipitación (mm) Presión (hPa) Tendencia (hPa) Humedad (%)
2019-08-24 23:00:00 23.3 7 Noroeste 16 Noroeste 0 -- -- 47
2019-08-24 22:00:00 24.7 9 Noroeste 16 Noroeste 0 -- -- 45
2019-08-24 21:00:00 26.4 9 Noroeste 23 Oeste 0 -- -- 38
2019-08-24 20:00:00 29.4 13 Oeste 26 Sudoeste 0 -- -- 34
2019-08-24 19:00:00 29.2 15 Oeste 23 Oeste 0 -- -- 31
2019-08-24 18:00:00 30.6 6 Nordeste 13 Norte 0 -- -- 30
2019-08-24 17:00:00 31.4 7 Nordeste 21 Sudeste 0 -- -- 29
2019-08-24 16:00:00 31 8 Sur 19 Sur 0 -- -- 30
2019-08-24 15:00:00 31.4 8 Este 23 Sur 0 -- -- 28
2019-08-24 14:00:00 29.7 13 Sudeste 23 Sudeste 0 -- -- 31
2019-08-24 13:00:00 28.9 9 Sudeste 18 Sudeste 0 -- -- 32
2019-08-24 12:00:00 27.8 6 Sudeste 14 Sudeste 0 -- -- 32
2019-08-24 11:00:00 26.3 6 Este 12 Nordeste 0 -- -- 33
2019-08-24 10:00:00 23.4 5 Norte 10 Norte 0 -- -- 43
2019-08-24 09:00:00 18.2 8 Norte 13 Norte 0 -- -- 54
2019-08-24 08:00:00 14.4 11 Norte 13 Norte 0 -- -- 64
2019-08-24 07:00:00 12.6 10 Norte 13 Norte 0 -- -- 74
2019-08-24 06:00:00 14 4 Norte 7 Norte 0 -- -- 70
2019-08-24 05:00:00 14.8 0 Calma 6 Norte 0 -- -- 68
2019-08-24 04:00:00 16.1 5 Nordeste 8 Sur 0 -- -- 61
2019-08-24 03:00:00 19.4 5 Oeste 12 Norte 0 -- -- 50
2019-08-24 02:00:00 18.9 7 Norte 12 Noroeste 0 -- -- 51
2019-08-24 01:00:00 18.4 9 Nordeste 14 Noroeste 0 -- -- 51
2019-08-24 00:00:00 20.5 11 Norte 20 Norte 0 -- -- 45
2019-08-23 23:00:00 25.2 10 Oeste 13 Oeste 0 -- -- 32
2019-08-23 22:00:00 25.6 5 Sudoeste 12 Sudoeste 0 -- -- 31
2019-08-23 21:00:00 27 5 Sudeste 18 Sudeste 0 -- -- 31
2019-08-23 20:00:00 29.5 11 Sudeste 17 Sudeste 0 -- -- 27
2019-08-23 19:00:00 30.8 14 Sur 18 Sur 0 -- -- 26
2019-08-23 18:00:00 31.6 15 Sur 28 Sur 0 -- -- 23
2019-08-23 17:00:00 31.8 14 Sur 25 Sudeste 0 -- -- 23
2019-08-23 16:00:00 31.2 14 Sur 26 Sur 0 -- -- 23
2019-08-23 15:00:00 30.8 7 Este 21 Sur 0 -- -- 24
2019-08-23 14:00:00 29.9 6 Sur 22 Sudeste 0 -- -- 21
2019-08-23 13:00:00 27.7 7 Sur 14 Sudeste 0 -- -- 23
2019-08-23 12:00:00 26 6 Sur 13 Sur 0 -- -- 29
2019-08-23 11:00:00 24.7 6 Sudeste 11 Sur 0 -- -- 30
2019-08-23 10:00:00 21.6 0 Calma 7 Nordeste 0 -- -- 45
2019-08-23 09:00:00 15.8 3 Nordeste 8 Norte 0 -- -- 54
2019-08-23 08:00:00 10.8 3 Oeste 6 Nordeste 0 -- -- 64
2019-08-23 07:00:00 10 3 Sudoeste 10 Norte 0 -- -- 64
2019-08-23 06:00:00 9 7 Norte 9 Norte 0 -- -- 69
2019-08-23 05:00:00 11.8 3 Noroeste 8 Norte 0 -- -- 58
2019-08-23 04:00:00 11.3 2 Norte 7 Noroeste 0 -- -- 58
2019-08-23 03:00:00 15.8 0 Calma 8 Norte 0 -- -- 43
2019-08-23 02:00:00 16.5 9 Norte 15 Norte 0 -- -- 40
2019-08-23 01:00:00 15.1 12 Norte 23 Este 0 -- -- 43
2019-08-23 00:00:00 14.8 11 Norte 13 Norte 0 -- -- 43
2019-08-22 23:00:00 20.9 5 Noroeste 6 Oeste 0 -- -- 31
2019-08-22 22:00:00 22.9 4 Este 10 Sudeste 0 -- -- 28
2019-08-22 21:00:00 24.7 7 Sudeste 20 Sudeste 0 -- -- 26
2019-08-22 20:00:00 27.7 13 Sudeste 22 Sur 0 -- -- 22
2019-08-22 19:00:00 29.3 12 Sudeste 22 Este 0 -- -- 19
2019-08-22 18:00:00 30.1 8 Este 20 Este 0 -- -- 21
2019-08-22 17:00:00 29.8 6 Sudeste 21 Sudeste 0 -- -- 24
2019-08-22 16:00:00 28.8 10 Sudeste 20 Sudeste 0 -- -- 27
2019-08-22 15:00:00 26.7 10 Sudeste 18 Sur 0 -- -- 30
2019-08-22 14:00:00 25.2 10 Sudeste 18 Sudeste 0 -- -- 35
2019-08-22 13:00:00 24.4 8 Sur 21 Sudeste 0 -- -- 37
2019-08-22 12:00:00 23.2 7 Sur 17 Sur 0 -- -- 33
2019-08-22 11:00:00 20.9 6 Sur 15 Sur 0 -- -- 36
2019-08-22 10:00:00 19.3 7 Sudoeste 13 Sur 0 -- -- 46
2019-08-22 09:00:00 16.7 5 Oeste 6 Oeste 0 -- -- 62
2019-08-22 08:00:00 9.4 6 Noroeste 10 Norte 0 -- -- 90
2019-08-22 07:00:00 9.4 7 Norte 10 Norte 0 -- -- 88
2019-08-22 06:00:00 10.6 6 Norte 9 Oeste 0 -- -- 82
2019-08-22 05:00:00 15 7 Oeste 11 Oeste 0 -- -- 67
2019-08-22 04:00:00 15.4 6 Oeste 9 Oeste 0 -- -- 67
2019-08-22 03:00:00 15.1 7 Sudoeste 13 Sudoeste 0 -- -- 70
2019-08-22 02:00:00 16.3 8 Sudoeste 14 Sudoeste 0 -- -- 65
2019-08-22 01:00:00 18.3 9 Oeste 12 Oeste 0 -- -- 55
2019-08-22 00:00:00 18.5 4 Sudoeste 11 Nordeste -- -- -- 52
2019-08-21 23:00:00 18.9 10 Nordeste 14 Norte 0 -- -- 45
2019-08-21 22:00:00 22.1 7 Norte 11 Noroeste 0 -- -- 40
2019-08-21 21:00:00 24.2 5 Sudeste 16 Sudeste 0 -- -- 35
2019-08-21 20:00:00 28.4 8 Sudeste 22 Sur 0 -- -- 25
2019-08-21 19:00:00 29 11 Sudeste 20 Sudeste 0 -- -- 27
2019-08-21 18:00:00 30.6 8 Nordeste 18 Este 0 -- -- 19
2019-08-21 17:00:00 30.3 6 Nordeste 19 Nordeste 0 -- -- 21
2019-08-21 16:00:00 28.3 7 Nordeste 16 Sudoeste 0 -- -- 27
2019-08-21 15:00:00 26.9 6 Sur 18 Noroeste 0 -- -- 29
2019-08-21 14:00:00 24.6 7 Sur 17 Sudeste 0 -- -- 39
2019-08-21 13:00:00 24.7 5 Nordeste 15 Sur 0 -- -- 40
2019-08-21 12:00:00 21.9 4 Este 13 Nordeste 0 -- -- 47
2019-08-21 11:00:00 21.7 5 Este 13 Este 0 -- -- 46
2019-08-21 10:00:00 19.1 3 Norte 9 Nordeste 0 -- -- 51
2019-08-21 09:00:00 14.9 4 Nordeste 12 Oeste 0 -- -- 66
2019-08-21 08:00:00 10.8 6 Noroeste 16 Oeste 0 -- -- 81
2019-08-21 07:00:00 12.2 10 Oeste 16 Oeste 0 -- -- 73
2019-08-21 06:00:00 11.2 3 Sudoeste 15 Oeste 0 -- -- 76
2019-08-21 05:00:00 12.8 5 Oeste 12 Oeste 0 -- -- 69
2019-08-21 04:00:00 13.1 8 Oeste 10 Oeste 0 -- -- 69
2019-08-21 03:00:00 13.6 5 Oeste 10 Oeste 0 -- -- 67
2019-08-21 02:00:00 13.8 5 Sudeste 13 Sur 0 -- -- 66
2019-08-21 01:00:00 14.4 5 Sudeste 13 Este 0 -- -- 65
2019-08-21 00:00:00 15.2 3 Sudeste 19 Este 0 -- -- 61
2019-08-20 23:00:00 16.4 7 Este 19 Sudeste 0 -- -- 57
2019-08-20 22:00:00 17.7 8 Sudeste 17 Sudeste 0 -- -- 54
2019-08-20 21:00:00 20.1 11 Sudeste 23 Sudeste 0 -- -- 47
2019-08-20 20:00:00 23.2 15 Sur 23 Sur 0 -- -- 40
2019-08-20 19:00:00 24 12 Sudeste 26 Sur 0 -- -- 39
2019-08-20 18:00:00 24.6 12 Sur 28 Sur 0 -- -- 37
2019-08-20 17:00:00 24.1 11 Sur 28 Sur 0 -- -- 38
2019-08-20 16:00:00 24.4 8 Este 24 Sur 0 -- -- 36
2019-08-20 15:00:00 22.6 11 Sur 27 Sudeste 0 -- -- 40
2019-08-20 14:00:00 23 6 Este 24 Sudeste 0 -- -- 39
2019-08-20 13:00:00 21.3 5 Sudeste 23 Este 0 -- -- 47
2019-08-20 12:00:00 21.6 7 Este 23 Norte 0 -- -- 45
2019-08-20 11:00:00 19.6 9 Nordeste 17 Nordeste 0 -- -- 50
2019-08-20 10:00:00 17 6 Norte 9 Norte 0 -- -- 61
2019-08-20 09:00:00 12.6 6 Norte 9 Norte 0 -- -- 80
2019-08-20 08:00:00 7.9 7 Norte 8 Norte 0 -- -- 93
2019-08-20 07:00:00 10 5 Noroeste 13 Noroeste 0 -- -- 88
2019-08-20 06:00:00 10.2 6 Noroeste 12 Noroeste 0 -- -- 87
2019-08-20 05:00:00 11 0 Calma 7 Noroeste 0 -- -- 87
2019-08-20 04:00:00 12.3 2 Sur 3 Sudeste 0 -- -- 81
2019-08-20 03:00:00 13.2 3 Norte 8 Oeste 0 -- -- 78
2019-08-20 02:00:00 13.9 5 Oeste 10 Oeste 0 -- -- 73
2019-08-20 01:00:00 14.4 6 Sudoeste 8 Sudoeste 0 -- -- 72
2019-08-20 00:00:00 14.6 6 Nordeste 18 Nordeste 0 -- -- 71
2019-08-19 23:00:00 15.3 8 Este 23 Nordeste 0 -- -- 68
2019-08-19 22:00:00 16.3 11 Nordeste 22 Nordeste 0 -- -- 64
2019-08-19 21:00:00 20.5 6 Este 10 Este 0 -- -- 41
2019-08-19 20:00:00 22.2 7 Sudeste 18 Sudeste 0 -- -- 37
2019-08-19 19:00:00 22.1 12 Sudeste 20 Sudeste 0 -- -- 38
2019-08-19 18:00:00 24.3 7 Nordeste 17 Nordeste 0 -- -- 34
2019-08-19 17:00:00 23.8 9 Sudoeste 14 Sudoeste 0 -- -- 34
2019-08-19 16:00:00 24.4 5 Este 14 Nordeste 0 -- -- 38
2019-08-19 15:00:00 22.2 6 Norte 18 Sur 0 -- -- 46
2019-08-19 14:00:00 21 5 Este 19 Este 0 -- -- 50
2019-08-19 13:00:00 19.5 7 Este 17 Nordeste 0 -- -- 55
2019-08-19 12:00:00 17.9 4 Norte 10 Nordeste 0 -- -- 55
2019-08-19 11:00:00 16.3 2 Nordeste 8 Norte 0 -- -- 57
2019-08-19 10:00:00 13.7 3 Norte 6 Nordeste 0 -- -- 79
2019-08-19 09:00:00 11.2 3 Norte 9 Noroeste 0 -- -- 88
2019-08-19 08:00:00 10.2 7 Norte 13 Norte 0 -- -- 90
2019-08-19 07:00:00 9.8 6 Norte 12 Norte 0 -- -- 93
2019-08-19 06:00:00 9.5 10 Norte 14 Norte 0 -- -- 94
2019-08-19 05:00:00 9.2 7 Norte 10 Norte 0 -- -- 94
2019-08-19 04:00:00 10.7 8 Oeste 10 Oeste 0 -- -- 91
2019-08-19 03:00:00 10.2 6 Nordeste 12 Sudeste 0 -- -- 92
2019-08-19 02:00:00 11.3 5 Sudeste 12 Sudeste 0 -- -- 86
2019-08-19 01:00:00 12.8 4 Sudeste 7 Noroeste 0 -- -- 79
2019-08-19 00:00:00 13.2 3 Noroeste 16 Noroeste 0 -- -- 77
2019-08-18 23:00:00 14.6 12 Noroeste 30 Noroeste 0 -- -- 72
2019-08-18 22:00:00 15.6 11 Noroeste 32 Noroeste 0 -- -- 70
2019-08-18 21:00:00 17.5 21 Noroeste 37 Noroeste 0 -- -- 68
2019-08-18 20:00:00 20.4 19 Noroeste 34 Noroeste 0 -- -- 55
2019-08-18 19:00:00 22.7 22 Noroeste 39 Noroeste 0 -- -- 51
2019-08-18 18:00:00 23.4 24 Noroeste 38 Noroeste 0 -- -- 52
2019-08-18 17:00:00 24.1 17 Noroeste 27 Noroeste 0 -- -- 54
2019-08-18 16:00:00 22.7 8 Norte 15 Norte 0.4 -- -- 74
2019-08-18 15:00:00 17.5 9 Noroeste 32 Noroeste 2.8 -- -- 93
2019-08-18 14:00:00 16.9 14 Noroeste 26 Oeste 3.8 -- -- 93
2019-08-18 13:00:00 20.9 7 Noroeste 16 Noroeste 0 -- -- 69
2019-08-18 12:00:00 20.8 9 Sur 14 Sur 0 -- -- 60
2019-08-18 11:00:00 20.1 7 Noroeste 18 Noroeste 0 -- -- 70
2019-08-18 10:00:00 18.2 6 Norte 17 Norte 0 -- -- 74
2019-08-18 09:00:00 16.4 7 Nordeste 23 Noroeste 0 -- -- 78
2019-08-18 08:00:00 15 10 Norte 16 Norte 0 -- -- 83
2019-08-18 07:00:00 15.2 9 Nordeste 26 Noroeste 0 -- -- 81
2019-08-18 06:00:00 14.8 4 Sudoeste 19 Norte 0 -- -- 81
2019-08-18 05:00:00 15.9 8 Noroeste 13 Oeste 0 -- -- 76
2019-08-18 04:00:00 17.2 10 Oeste 18 Oeste 0 -- -- 71
2019-08-18 03:00:00 17 4 Sudeste 12 Noroeste 0 -- -- 74
2019-08-18 02:00:00 18.9 5 Oeste 14 Noroeste 0 -- -- 65
2019-08-18 01:00:00 19.3 8 Noroeste 27 Noroeste 0 -- -- 65
2019-08-18 00:00:00 20.2 17 Noroeste 28 Noroeste 0 -- -- 59
2019-08-17 23:00:00 22 17 Noroeste 28 Noroeste 0 -- -- 53
2019-08-17 22:00:00 23.3 16 Noroeste 28 Noroeste 0 -- -- 46
2019-08-17 21:00:00 25.7 14 Noroeste 33 Noroeste 0 -- -- 41
2019-08-17 20:00:00 29.1 18 Noroeste 28 Oeste 0 -- -- 34
2019-08-17 19:00:00 31.5 13 Noroeste 36 Noroeste 0 -- -- 30
2019-08-17 18:00:00 31.6 23 Norte 37 Norte 0 -- -- 29
2019-08-17 17:00:00 32 17 Norte 32 Nordeste 0 -- -- 29
2019-08-17 16:00:00 31.6 6 Sur 26 Este 0 -- -- 31
2019-08-17 15:00:00 29.8 10 Este 21 Este 0 -- -- 34
2019-08-17 14:00:00 29.2 6 Nordeste 25 Sudeste 0 -- -- 33
2019-08-17 13:00:00 27.7 10 Sur 19 Sur 0 -- -- 35
2019-08-17 12:00:00 26.4 6 Sur 16 Sur 0 -- -- 39
2019-08-17 11:00:00 24.4 7 Sur 13 Sur 0 -- -- 45
2019-08-17 10:00:00 22.8 5 Sudeste 11 Norte 0 -- -- 53
2019-08-17 09:00:00 20.2 7 Norte 12 Noroeste 0 -- -- 57
2019-08-17 08:00:00 13.9 2 Noroeste 11 Norte 0 -- -- 79
2019-08-17 07:00:00 13.8 6 Norte 10 Nordeste 0 -- -- 87
2019-08-17 06:00:00 14.4 4 Norte 10 Norte 0 -- -- 78
2019-08-17 05:00:00 16 0 Calma 5 Norte 0 -- -- 75
2019-08-17 04:00:00 16.9 0 Calma 10 Noroeste 0 -- -- 71
2019-08-17 03:00:00 17.3 6 Norte 14 Oeste 0 -- -- 69
2019-08-17 02:00:00 18.2 4 Sudeste 18 Noroeste 0 -- -- 69
2019-08-17 01:00:00 18.5 6 Norte 18 Nordeste 0 -- -- 67
2019-08-17 00:00:00 20.2 6 Nordeste 20 Noroeste 0 -- -- 63
2019-08-16 23:00:00 21.8 15 Noroeste 32 Noroeste 0 -- -- 56
2019-08-16 22:00:00 23.4 19 Noroeste 32 Noroeste 0 -- -- 44
2019-08-16 21:00:00 24.9 17 Noroeste 35 Oeste 0 -- -- 33
2019-08-16 20:00:00 27.6 15 Noroeste 34 Noroeste 0 -- -- 27
2019-08-16 19:00:00 30.9 20 Noroeste 32 Oeste 0 -- -- 24
2019-08-16 18:00:00 32 17 Noroeste 33 Noroeste 0 -- -- 22
2019-08-16 17:00:00 32.6 15 Noroeste 35 Nordeste 0 -- -- 21
2019-08-16 16:00:00 32.2 13 Nordeste 29 Nordeste 0 -- -- 25
2019-08-16 15:00:00 29.4 14 Sur 23 Sur 0 -- -- 35
2019-08-16 14:00:00 29.8 9 Nordeste 19 Sudeste 0 -- -- 34
2019-08-16 13:00:00 27.1 7 Sudoeste 19 Sur 0 -- -- 39
2019-08-16 12:00:00 25.7 9 Sudoeste 19 Sur 0 -- -- 45
2019-08-16 11:00:00 25 4 Oeste 9 Sudoeste 0 -- -- 47
2019-08-16 10:00:00 21.3 4 Sudoeste 6 Sudoeste 0 -- -- 59
2019-08-16 09:00:00 17.9 0 Calma 8 Norte 0 -- -- 67
2019-08-16 08:00:00 12.4 2 Sur 8 Noroeste 0 -- -- 89
2019-08-16 07:00:00 11.6 9 Norte 10 Norte 0 -- -- 90
2019-08-16 06:00:00 12.8 3 Nordeste 5 Norte 0 -- -- 83
2019-08-16 05:00:00 14.1 3 Sudeste 5 Sudeste 0 -- -- 80
2019-08-16 04:00:00 15.5 3 Oeste 13 Sudoeste 0 -- -- 77
2019-08-16 03:00:00 17.5 10 Oeste 13 Oeste 0 -- -- 69
2019-08-16 02:00:00 17.4 2 Sudoeste 8 Nordeste 0 -- -- 72
2019-08-16 01:00:00 18.3 2 Noroeste 12 Sudeste 0 -- -- 68
2019-08-16 00:00:00 20.1 6 Sudeste 10 Este 0 -- -- 61
2019-08-15 23:00:00 20.5 4 Norte 23 Noroeste 0 -- -- 59
2019-08-15 22:00:00 22.3 11 Noroeste 18 Noroeste 0 -- -- 54
2019-08-15 21:00:00 25.2 12 Noroeste 24 Noroeste 0 -- -- 44
2019-08-15 20:00:00 28.2 16 Noroeste 28 Noroeste 0 -- -- 37
2019-08-15 19:00:00 30.4 14 Noroeste 27 Oeste 0 -- -- 32
2019-08-15 18:00:00 29.1 7 Oeste 24 Sudoeste 0 -- -- 35
2019-08-15 17:00:00 27.9 4 Sur 21 Sudeste 0 -- -- 38
2019-08-15 16:00:00 29.6 5 Nordeste 26 Sur 0 -- -- 36
2019-08-15 15:00:00 28.3 14 Sur 27 Sudeste 0 -- -- 37
2019-08-15 14:00:00 26.7 12 Sur 23 Sudeste 0 -- -- 40
2019-08-15 13:00:00 26.6 9 Sudeste 21 Sur 0 -- -- 40
2019-08-15 12:00:00 25.5 6 Sur 15 Sudeste 0 -- -- 40
2019-08-15 11:00:00 25.2 5 Norte 12 Noroeste 0 -- -- 36
2019-08-15 10:00:00 22.3 2 Norte 7 Nordeste 0 -- -- 48
2019-08-15 09:00:00 19.1 3 Nordeste 9 Nordeste 0 -- -- 59
2019-08-15 08:00:00 13.7 0 Calma 13 Noroeste 0 -- -- 72
2019-08-15 07:00:00 12.4 8 Norte 15 Norte 0 -- -- 84
2019-08-15 06:00:00 13.3 10 Norte 14 Norte 0 -- -- 86
2019-08-15 05:00:00 14.7 7 Norte 10 Norte 0 -- -- 79
2019-08-15 04:00:00 15.8 6 Noroeste 13 Noroeste 0 -- -- 75
2019-08-15 03:00:00 15.8 7 Norte 13 Noroeste 0 -- -- 72
2019-08-15 02:00:00 16.4 11 Noroeste 22 Noroeste 0 -- -- 74
2019-08-15 01:00:00 18 6 Noroeste 20 Noroeste 0 -- -- 72
2019-08-15 00:00:00 18.9 10 Noroeste 21 Noroeste 0 -- -- 70
2019-08-14 23:00:00 19.8 8 Noroeste 30 Noroeste 0 -- -- 65
2019-08-14 22:00:00 20.9 15 Noroeste 33 Oeste 0 -- -- 61
2019-08-14 21:00:00 22.9 21 Noroeste 40 Noroeste 0 -- -- 58
2019-08-14 20:00:00 26.2 16 Noroeste 33 Norte 0 -- -- 50
2019-08-14 19:00:00 28.4 20 Noroeste 37 Noroeste 0 -- -- 43
2019-08-14 18:00:00 28.8 24 Noroeste 38 Noroeste 0 -- -- 40
2019-08-14 17:00:00 28.8 26 Noroeste 43 Norte 0 -- -- 41
2019-08-14 16:00:00 28.7 19 Noroeste 39 Norte 0 -- -- 41
2019-08-14 15:00:00 28.9 13 Noroeste 28 Norte 0 -- -- 41
2019-08-14 14:00:00 28 18 Norte 27 Norte 0 -- -- 42
2019-08-14 13:00:00 25.8 9 Sur 21 Sur 0 -- -- 41
2019-08-14 12:00:00 24.6 8 Sur 14 Sudeste 0 -- -- 42
2019-08-14 11:00:00 22.4 5 Sudeste 13 Sudeste 0 -- -- 47
2019-08-14 10:00:00 20 4 Sudeste 8 Nordeste 0 -- -- 51
2019-08-14 09:00:00 15.7 2 Sur 12 Norte 0 -- -- 62
2019-08-14 08:00:00 10.5 3 Sudoeste 8 Norte 0 -- -- 74
2019-08-14 07:00:00 11.5 5 Noroeste 9 Norte 0 -- -- 69
2019-08-14 06:00:00 12.4 3 Sudoeste 6 Nordeste 0 -- -- 66
2019-08-14 05:00:00 12.5 2 Sudoeste 10 Norte 0 -- -- 66
2019-08-14 04:00:00 13 4 Sudeste 11 Sudeste 0 -- -- 63
2019-08-14 03:00:00 13.1 6 Norte 12 Norte 0 -- -- 63
2019-08-14 02:00:00 15.2 3 Sudoeste 7 Norte 0 -- -- 55
2019-08-14 01:00:00 15.5 4 Nordeste 6 Nordeste 0 -- -- 53
2019-08-14 00:00:00 16.9 2 Norte 12 Oeste 0 -- -- 46
2019-08-13 23:00:00 18 4 Sudeste 12 Noroeste 0 -- -- 48
2019-08-13 22:00:00 20.1 4 Sur 11 Oeste 0 -- -- 41
2019-08-13 21:00:00 23.3 4 Sudoeste 14 Sudeste 0 -- -- 36
2019-08-13 20:00:00 25.7 5 Sudeste 22 Sudeste 0 -- -- 32
2019-08-13 19:00:00 25.4 9 Sudeste 23 Sudeste 0 -- -- 33
2019-08-13 18:00:00 24.8 15 Sudeste 23 Sudeste 0 -- -- 33
2019-08-13 17:00:00 24.8 12 Sudeste 27 Sur 0 -- -- 33
2019-08-13 16:00:00 23.4 12 Sudeste 27 Sudeste 0 -- -- 37
2019-08-13 15:00:00 22.1 14 Sudeste 28 Sur 0 -- -- 41
2019-08-13 14:00:00 20.7 11 Sudeste 24 Sudeste 0 -- -- 44
2019-08-13 13:00:00 19.2 11 Sur 21 Sudeste 0 -- -- 50
2019-08-13 12:00:00 17.5 10 Sudeste 18 Sudeste 0 -- -- 54
2019-08-13 11:00:00 16.9 4 Sur 10 Sur 0 -- -- 56
2019-08-13 10:00:00 15.1 3 Sur 6 Nordeste 0 -- -- 64
2019-08-13 09:00:00 10.4 5 Norte 8 Norte 0 -- -- 77
2019-08-13 08:00:00 7.4 0 Calma 8 Norte 0 -- -- 89
2019-08-13 07:00:00 6.2 7 Norte 9 Norte 0 -- -- 92
2019-08-13 06:00:00 6.9 4 Norte 6 Nordeste 0 -- -- 88
2019-08-13 05:00:00 8.4 2 Norte 5 Nordeste 0 -- -- 86
2019-08-13 04:00:00 9.6 0 Calma 4 Este 0 -- -- 80
2019-08-13 03:00:00 11.4 0 Calma 5 Noroeste 0 -- -- 75
2019-08-13 02:00:00 11.7 2 Sudeste 14 Este 0 -- -- 74
2019-08-13 01:00:00 12.7 4 Este 18 Este 0 -- -- 70
2019-08-13 00:00:00 13.3 6 Sudeste 15 Este 0 -- -- 66
2019-08-12 23:00:00 14.6 8 Nordeste 10 Nordeste 0 -- -- 56
2019-08-12 22:00:00 16.3 3 Noroeste 14 Este 0 -- -- 49
2019-08-12 21:00:00 17.3 11 Norte 19 Norte 0 -- -- 47
2019-08-12 20:00:00 21.6 9 Norte 16 Norte 0 -- -- 34
2019-08-12 19:00:00 19.2 7 Noroeste 20 Noroeste 0 -- -- 38
2019-08-12 18:00:00 19.4 14 Noroeste 26 Norte 0 -- -- 36
2019-08-12 17:00:00 21.3 12 Noroeste 32 Noroeste 0 -- -- 31
2019-08-12 16:00:00 22.2 13 Nordeste 25 Nordeste 0 -- -- 33
2019-08-12 15:00:00 21.5 8 Norte 29 Norte 0 -- -- 37
2019-08-12 14:00:00 20.1 7 Norte 28 Norte 0 -- -- 40
2019-08-12 13:00:00 19 14 Norte 25 Norte 0 -- -- 41
2019-08-12 12:00:00 18 12 Noroeste 24 Norte 0 -- -- 42
2019-08-12 11:00:00 16.6 11 Noroeste 21 Noroeste 0 -- -- 44
2019-08-12 10:00:00 15.9 9 Norte 16 Noroeste 0 -- -- 53
2019-08-12 09:00:00 11.4 6 Norte 15 Nordeste 0 -- -- 72
2019-08-12 08:00:00 6.8 5 Nordeste 16 Noroeste 0 -- -- 88
2019-08-12 07:00:00 7.2 4 Norte 15 Noroeste 0 -- -- 87
2019-08-12 06:00:00 7.7 7 Noroeste 12 Noroeste 0 -- -- 86
2019-08-12 05:00:00 7.3 6 Nordeste 10 Nordeste 0 -- -- 88
2019-08-12 04:00:00 8.1 5 Norte 14 Noroeste 0 -- -- 83
2019-08-12 03:00:00 9.6 4 Sudoeste 14 Noroeste 0 -- -- 78
2019-08-12 02:00:00 10.4 9 Noroeste 23 Noroeste 0 -- -- 73
2019-08-12 01:00:00 11.3 9 Noroeste 22 Noroeste 0 -- -- 68
2019-08-12 00:00:00 11.5 10 Noroeste 23 Norte 0 -- -- 68
2019-08-11 23:00:00 12.3 13 Noroeste 25 Noroeste 0 -- -- 64
2019-08-11 22:00:00 13.1 14 Noroeste 28 Noroeste 0 -- -- 62
2019-08-11 21:00:00 14.8 13 Noroeste 33 Oeste 0 -- -- 60
2019-08-11 20:00:00 15 15 Noroeste 43 Noroeste 0 -- -- 62
2019-08-11 19:00:00 16.2 27 Noroeste 45 Noroeste 0 -- -- 57
2019-08-11 18:00:00 20.3 24 Noroeste 48 Noroeste 0 -- -- 44
2019-08-11 17:00:00 21.8 22 Noroeste 43 Noroeste 0 -- -- 33
2019-08-11 16:00:00 22 20 Noroeste 36 Oeste 0 -- -- 31
2019-08-11 15:00:00 21.5 22 Noroeste 36 Noroeste 0 -- -- 35
2019-08-11 14:00:00 21.3 12 Oeste 36 Noroeste 0 -- -- 35
2019-08-11 13:00:00 20.6 15 Norte 34 Norte 0 -- -- 42
2019-08-11 12:00:00 19.9 8 Oeste 24 Oeste 0 -- -- 45
2019-08-11 11:00:00 17.8 9 Norte 17 Norte 0 -- -- 59
2019-08-11 10:00:00 16.6 6 Norte 13 Noroeste 0 -- -- 66
2019-08-11 09:00:00 14.2 2 Norte 5 Norte 0 -- -- 76
2019-08-11 08:00:00 12.2 4 Norte 9 Norte 0 -- -- 82
2019-08-11 07:00:00 12.1 7 Norte 9 Norte 0 -- -- 83
2019-08-11 06:00:00 13.1 4 Norte 8 Norte 0 -- -- 79
2019-08-11 05:00:00 14 5 Este 9 Este 0 -- -- 79
2019-08-11 04:00:00 14.9 0 Calma 15 Este 0 -- -- 71
2019-08-11 03:00:00 15.2 9 Sudeste 28 Sur 0 -- -- 69
2019-08-11 02:00:00 15.3 5 Este 10 Nordeste 0 -- -- 66
2019-08-11 01:00:00 15.9 5 Oeste 8 Oeste 0 -- -- 64
2019-08-11 00:00:00 16.2 4 Noroeste 24 Noroeste 0 -- -- 61
2019-08-10 23:00:00 17 14 Oeste 29 Oeste 0 -- -- 55
2019-08-10 22:00:00 17.6 14 Noroeste 30 Noroeste 0 -- -- 53
2019-08-10 21:00:00 18.9 16 Noroeste 31 Noroeste 0 -- -- 48
2019-08-10 20:00:00 20.9 15 Noroeste 30 Noroeste 0 -- -- 44
2019-08-10 19:00:00 22.5 19 Noroeste 31 Noroeste 0 -- -- 43
2019-08-10 18:00:00 24.6 14 Norte 28 Norte 0 -- -- 38
2019-08-10 17:00:00 24 9 Sudeste 25 Sudeste 0 -- -- 36
2019-08-10 16:00:00 24.4 9 Sur 23 Sur 0 -- -- 36
2019-08-10 15:00:00 23.5 6 Sudoeste 21 Nordeste 0 -- -- 37
2019-08-10 14:00:00 22.8 11 Nordeste 20 Nordeste 0 -- -- 42
2019-08-10 13:00:00 21.7 9 Noroeste 27 Oeste 0 -- -- 43
2019-08-10 12:00:00 20.3 11 Oeste 21 Oeste 0 -- -- 44
2019-08-10 11:00:00 19.5 8 Noroeste 17 Noroeste 0 -- -- 50
2019-08-10 10:00:00 16.5 8 Oeste 15 Oeste 0 -- -- 60
2019-08-10 09:00:00 13.1 4 Nordeste 16 Noroeste 0 -- -- 75
2019-08-10 08:00:00 11.2 9 Noroeste 25 Noroeste 0 -- -- 78
2019-08-10 07:00:00 11.6 13 Noroeste 22 Noroeste 0 -- -- 76
2019-08-10 06:00:00 12.8 10 Noroeste 17 Norte 0 -- -- 79
2019-08-10 05:00:00 13.3 9 Noroeste 19 Noroeste 0 -- -- 79
2019-08-10 04:00:00 13.6 7 Noroeste 14 Noroeste 0 -- -- 78
2019-08-10 03:00:00 13.5 6 Noroeste 13 Noroeste 0 -- -- 79
2019-08-10 02:00:00 13.7 8 Noroeste 16 Norte 0 -- -- 79
2019-08-10 01:00:00 14.6 15 Noroeste 22 Noroeste 0 -- -- 74
2019-08-10 00:00:00 15.2 12 Noroeste 24 Noroeste 0 -- -- 69
2019-08-09 23:00:00 15.9 17 Noroeste 27 Noroeste 0 -- -- 62
2019-08-09 22:00:00 16.5 15 Noroeste 26 Noroeste 0 -- -- 60
2019-08-09 21:00:00 17.6 12 Noroeste 31 Noroeste 0 -- -- 57
2019-08-09 20:00:00 18.8 15 Noroeste 37 Oeste 0 -- -- 54
2019-08-09 19:00:00 20.9 14 Noroeste 30 Noroeste 0 -- -- 47
2019-08-09 18:00:00 23.3 15 Oeste 35 Oeste 0 -- -- 38
2019-08-09 17:00:00 23.3 18 Noroeste 38 Noroeste 0 -- -- 41
2019-08-09 16:00:00 22.7 23 Norte 39 Noroeste 0 -- -- 42
2019-08-09 15:00:00 24.1 18 Oeste 35 Oeste 0 -- -- 41
2019-08-09 14:00:00 23.4 5 Sur 26 Nordeste 0 -- -- 41
2019-08-09 13:00:00 23.6 10 Sur 22 Oeste 0 -- -- 46
2019-08-09 12:00:00 22.2 9 Noroeste 23 Oeste 0 -- -- 47
2019-08-09 11:00:00 21.1 8 Noroeste 22 Noroeste 0 -- -- 56
2019-08-09 10:00:00 18.4 7 Oeste 17 Noroeste 0 -- -- 64
2019-08-09 09:00:00 17.8 10 Noroeste 23 Norte 0 -- -- 83
2019-08-09 08:00:00 17.8 7 Oeste 18 Noroeste 0 -- -- 91
2019-08-09 07:00:00 17.8 9 Sur 24 Sur 0.6 -- -- 98
2019-08-09 06:00:00 18 16 Sur 39 Sur 0.2 -- -- 95
2019-08-09 05:00:00 18.2 32 Sur 50 Sur 0 -- -- 92
2019-08-09 04:00:00 19 24 Sur 46 Sur 0 -- -- 86
2019-08-09 03:00:00 19.1 18 Sur 42 Sur 0 -- -- 86
2019-08-09 02:00:00 19.5 18 Sur 30 Sur 0 -- -- 83
2019-08-09 01:00:00 20 12 Sudeste 28 Sur 0 -- -- 77
2019-08-09 00:00:00 21 23 Sur 39 Sur 0 -- -- 71
2019-08-08 23:00:00 22 9 Sudoeste 41 Sudeste 0 -- -- 63
2019-08-08 22:00:00 22.5 9 Sudoeste 31 Sudoeste 0 -- -- 59
2019-08-08 21:00:00 23.4 18 Sudoeste 41 Sudoeste 0 -- -- 56
2019-08-08 20:00:00 24 23 Sudoeste 54 Sudoeste 0 -- -- 59
2019-08-08 19:00:00 24.8 32 Sudoeste 52 Sudoeste 0 -- -- 61
2019-08-08 18:00:00 24.1 33 Sudoeste 54 Sur 0 -- -- 62
2019-08-08 17:00:00 24.2 31 Sudoeste 58 Sudoeste 0 -- -- 65
2019-08-08 16:00:00 24.8 35 Sur 58 Sur 0 -- -- 66
2019-08-08 15:00:00 24 36 Sur 50 Sur 0 -- -- 70
2019-08-08 14:00:00 22.7 26 Sur 39 Sur 0 -- -- 73
2019-08-08 13:00:00 21.4 18 Sudeste 26 Sudeste 0 -- -- 79
2019-08-08 12:00:00 19.4 21 Sur 29 Sur 0 -- -- 86
2019-08-08 11:00:00 19.4 18 Sur 26 Sur 0 -- -- 85
2019-08-08 10:00:00 17.9 11 Sur 22 Sur 0 -- -- 91
2019-08-08 09:00:00 17 5 Sudeste 8 Sudeste 0 -- -- 94
2019-08-08 08:00:00 16 5 Sur 18 Sur 0 -- -- 97
2019-08-08 07:00:00 16.2 9 Sur 13 Sur 0 -- -- 96
2019-08-08 06:00:00 15.8 3 Nordeste 6 Norte 0 -- -- 97
2019-08-08 05:00:00 16.2 2 Norte 10 Norte 0 -- -- 97
2019-08-08 04:00:00 15.7 8 Norte 10 Norte 0 -- -- 98
2019-08-08 03:00:00 16 6 Norte 12 Norte 0 -- -- 98
2019-08-08 02:00:00 16.1 7 Norte 10 Norte 0 -- -- 97
2019-08-08 01:00:00 15.9 5 Norte 9 Norte 0 -- -- 97
2019-08-08 00:00:00 16.2 7 Norte 10 Norte 0 -- -- 97
2019-08-07 23:00:00 16.2 3 Este 8 Sudeste 0 -- -- 96
2019-08-07 22:00:00 16.6 3 Nordeste 9 Nordeste 0 -- -- 95
2019-08-07 21:00:00 17.9 5 Sudeste 12 Sur 0 -- -- 90
2019-08-07 20:00:00 18.4 5 Sur 11 Norte 0.2 -- -- 89
2019-08-07 19:00:00 17.4 9 Norte 19 Norte 1.2 -- -- 92
2019-08-07 18:00:00 20.4 12 Norte 25 Norte 0 -- -- 69
2019-08-07 17:00:00 22.3 9 Noroeste 26 Sur 0 -- -- 58
2019-08-07 16:00:00 23.5 16 Sur 31 Sudoeste 0 -- -- 50
2019-08-07 15:00:00 23.8 12 Sudoeste 33 Sur 0 -- -- 46
2019-08-07 14:00:00 23 21 Sudoeste 40 Sudoeste 0 -- -- 49
2019-08-07 13:00:00 22.7 18 Sur 27 Sur 0 -- -- 51
2019-08-07 12:00:00 23 10 Sur 22 Sur 0 -- -- 50
2019-08-07 11:00:00 21.7 8 Sur 15 Sudeste 0 -- -- 53
2019-08-07 10:00:00 19 6 Sur 8 Sudeste 0 -- -- 61
2019-08-07 09:00:00 18.6 2 Nordeste 6 Oeste 0 -- -- 61
2019-08-07 08:00:00 15.5 0 Calma 8 Norte 0 -- -- 69
2019-08-07 07:00:00 15.6 4 Norte 5 Noroeste 0 -- -- 72
2019-08-07 06:00:00 17.2 5 Noroeste 9 Noroeste 0 -- -- 62
2019-08-07 05:00:00 17.4 8 Noroeste 13 Noroeste 0 -- -- 60
2019-08-07 04:00:00 17.1 4 Norte 9 Noroeste 0 -- -- 65
2019-08-07 03:00:00 17.6 5 Noroeste 10 Oeste 0 -- -- 66
2019-08-07 02:00:00 17.7 3 Sudoeste 5 Noroeste 0 -- -- 70
2019-08-07 01:00:00 17.8 0 Calma 10 Nordeste 0 -- -- 67
2019-08-07 00:00:00 18.4 7 Nordeste 15 Oeste 0 -- -- 63
2019-08-06 23:00:00 19 5 Oeste 14 Noroeste 0 -- -- 66
2019-08-06 22:00:00 19.3 13 Norte 21 Norte 0 -- -- 61
2019-08-06 21:00:00 20.3 5 Noroeste 29 Norte 0 -- -- 58
2019-08-06 20:00:00 21.2 13 Noroeste 33 Oeste 0 -- -- 55
2019-08-06 19:00:00 22.6 19 Noroeste 39 Noroeste 0 -- -- 58
2019-08-06 18:00:00 26.7 19 Noroeste 32 Noroeste 0 -- -- 44
2019-08-06 17:00:00 26.6 17 Norte 25 Norte 0 -- -- 49
2019-08-06 16:00:00 27.5 9 Norte 20 Norte 0 -- -- 47
2019-08-06 15:00:00 26.2 5 Sudeste 16 Sudeste 0 -- -- 48
2019-08-06 14:00:00 24.8 8 Sur 18 Sudeste 0 -- -- 52
2019-08-06 13:00:00 25.5 3 Sudeste 11 Sudeste 0 -- -- 50
2019-08-06 12:00:00 23.2 4 Sudoeste 13 Sur 0 -- -- 56
2019-08-06 11:00:00 22.1 5 Sur 10 Sur 0 -- -- 58
2019-08-06 10:00:00 20.3 4 Oeste 8 Noroeste 0 -- -- 70
2019-08-06 09:00:00 17.6 2 Sudoeste 6 Norte 0 -- -- 80
2019-08-06 08:00:00 14.8 4 Norte 9 Norte 0 -- -- 93
2019-08-06 07:00:00 15 3 Este 5 Este 0 -- -- 91
2019-08-06 06:00:00 15.8 0 Calma 8 Norte 0 -- -- 88
2019-08-06 05:00:00 15.5 9 Norte 13 Norte 0 -- -- 87
2019-08-06 04:00:00 17.3 2 Sur 4 Este 0 -- -- 79
2019-08-06 03:00:00 18.1 3 Sudeste 6 Sudeste 0 -- -- 74
2019-08-06 02:00:00 18.7 2 Norte 10 Noroeste 0 -- -- 70
2019-08-06 01:00:00 20.1 3 Oeste 8 Oeste 0 -- -- 65
2019-08-06 00:00:00 20.6 2 Norte 22 Noroeste 0 -- -- 62
2019-08-05 23:00:00 22.1 10 Noroeste 23 Noroeste 0 -- -- 56
2019-08-05 22:00:00 23.1 14 Noroeste 29 Noroeste 0 -- -- 53
2019-08-05 21:00:00 26.4 15 Noroeste 27 Noroeste 0 -- -- 42
2019-08-05 20:00:00 29.3 18 Norte 28 Noroeste 0 -- -- 37
2019-08-05 19:00:00 30.6 14 Norte 32 Norte 0 -- -- 35
2019-08-05 18:00:00 30.9 15 Norte 27 Norte 0 -- -- 33
2019-08-05 17:00:00 30.7 9 Noroeste 29 Norte 0 -- -- 31
2019-08-05 16:00:00 30.4 18 Norte 26 Norte 0 -- -- 33
2019-08-05 15:00:00 29.6 8 Nordeste 19 Nordeste 0 -- -- 35
2019-08-05 14:00:00 27.3 9 Sur 19 Sur 0 -- -- 40
2019-08-05 13:00:00 26.6 4 Sudeste 15 Sudeste 0 -- -- 43
2019-08-05 12:00:00 24.4 7 Sudeste 14 Sur 0 -- -- 52
2019-08-05 11:00:00 22.6 6 Sudoeste 13 Sur 0 -- -- 58
2019-08-05 10:00:00 21.9 3 Sudeste 6 Norte 0 -- -- 63
2019-08-05 09:00:00 17.2 5 Nordeste 7 Norte 0 -- -- 75
2019-08-05 08:00:00 14 0 Calma 8 Este 0 -- -- 87
2019-08-05 07:00:00 13.6 2 Sur 5 Noroeste 0 -- -- 88
2019-08-05 06:00:00 13.5 3 Oeste 8 Oeste 0 -- -- 87
2019-08-05 05:00:00 13.5 4 Norte 11 Nordeste 0 -- -- 90
2019-08-05 04:00:00 15.1 5 Nordeste 9 Sudeste 0 -- -- 79
2019-08-05 03:00:00 16.6 7 Sudeste 10 Sudeste 0 -- -- 75
2019-08-05 02:00:00 17.4 4 Noroeste 12 Oeste 0 -- -- 71
2019-08-05 01:00:00 18.2 3 Sudoeste 12 Noroeste 0 -- -- 66
2019-08-05 00:00:00 19.2 4 Norte 11 Noroeste 0 -- -- 60
2019-08-04 23:00:00 20.9 4 Oeste 16 Noroeste 0 -- -- 55
2019-08-04 22:00:00 22 9 Noroeste 24 Noroeste 0 -- -- 51
2019-08-04 21:00:00 25.1 15 Noroeste 35 Noroeste 0 -- -- 44
2019-08-04 20:00:00 27.8 19 Noroeste 35 Noroeste 0 -- -- 40
2019-08-04 19:00:00 29.7 18 Noroeste 34 Noroeste 0 -- -- 34
2019-08-04 18:00:00 30.6 19 Norte 31 Norte 0 -- -- 38
2019-08-04 17:00:00 30.7 12 Noroeste 27 Noroeste 0 -- -- 35
2019-08-04 16:00:00 30.4 13 Noroeste 33 Norte 0 -- -- 36
2019-08-04 15:00:00 29.8 10 Este 23 Este 0 -- -- 40
2019-08-04 14:00:00 28.4 10 Sudeste 23 Este 0 -- -- 40
2019-08-04 13:00:00 26.8 10 Sudeste 21 Sudeste 0 -- -- 49
2019-08-04 12:00:00 25.1 6 Sur 17 Sudeste 0 -- -- 53
2019-08-04 11:00:00 23.6 8 Sur 14 Sur 0 -- -- 58
2019-08-04 10:00:00 22.8 3 Nordeste 9 Norte 0 -- -- 64
2019-08-04 09:00:00 18.3 8 Norte 11 Norte 0 -- -- 81
2019-08-04 08:00:00 14.9 4 Norte 6 Norte 0 -- -- 89
2019-08-04 07:00:00 14.3 2 Noroeste 7 Noroeste 0 -- -- 90
2019-08-04 06:00:00 15.2 6 Noroeste 11 Norte 0 -- -- 89
2019-08-04 05:00:00 15.4 4 Nordeste 7 Nordeste 0 -- -- 86
2019-08-04 04:00:00 16.3 2 Sudoeste 9 Nordeste 0 -- -- 82
2019-08-04 03:00:00 17.8 4 Sudeste 10 Sudeste 0 -- -- 74
2019-08-04 02:00:00 18.3 5 Este 11 Oeste 0 -- -- 70
2019-08-04 01:00:00 19.9 7 Oeste 10 Oeste 0 -- -- 65
2019-08-04 00:00:00 21.1 2 Norte 8 Este 0 -- -- 55
2019-08-03 23:00:00 22.1 8 Norte 31 Noroeste 0 -- -- 51
2019-08-03 22:00:00 23.5 14 Oeste 31 Noroeste 0 -- -- 45
2019-08-03 21:00:00 25.9 16 Noroeste 30 Noroeste 0 -- -- 39
2019-08-03 20:00:00 28.8 14 Noroeste 31 Noroeste 0 -- -- 34
2019-08-03 19:00:00 30.3 15 Noroeste 28 Noroeste 0 -- -- 32
2019-08-03 18:00:00 28.5 9 Noroeste 27 Oeste 0.2 -- -- 46
2019-08-03 17:00:00 26.8 12 Noroeste 24 Norte 0.6 -- -- 57
2019-08-03 16:00:00 30.6 11 Nordeste 17 Norte 0 -- -- 32
2019-08-03 15:00:00 30.8 9 Sudeste 22 Sur 0 -- -- 31
2019-08-03 14:00:00 30.5 7 Sur 16 Noroeste 0 -- -- 31
2019-08-03 13:00:00 29.1 6 Sur 13 Sur 0 -- -- 33
2019-08-03 12:00:00 28.6 4 Nordeste 13 Este 0 -- -- 34
2019-08-03 11:00:00 26.6 5 Nordeste 10 Nordeste 0 -- -- 35
2019-08-03 10:00:00 24.8 6 Norte 8 Norte 0 -- -- 45
2019-08-03 09:00:00 19.3 4 Norte 7 Norte 0 -- -- 66
2019-08-03 08:00:00 13.5 3 Norte 5 Noroeste 0 -- -- 84
2019-08-03 07:00:00 13 6 Norte 12 Norte 0 -- -- 86
2019-08-03 06:00:00 14.8 6 Norte 14 Norte 0 -- -- 79
2019-08-03 05:00:00 13.9 9 Norte 13 Norte 0 -- -- 83
2019-08-03 04:00:00 16.7 4 Este 13 Noroeste 0 -- -- 75
2019-08-03 03:00:00 17.8 12 Noroeste 15 Norte 0 -- -- 72
2019-08-03 02:00:00 18.5 13 Norte 17 Norte 0 -- -- 70
2019-08-03 01:00:00 19 6 Nordeste 12 Norte 0 -- -- 68
2019-08-03 00:00:00 20.5 6 Norte 9 Noroeste 0 -- -- 62
2019-08-02 23:00:00 22 8 Norte 19 Noroeste 0 -- -- 57
2019-08-02 22:00:00 25.1 7 Oeste 12 Oeste 0 -- -- 43
2019-08-02 21:00:00 27.8 8 Sur 13 Sudeste 0 -- -- 34
2019-08-02 20:00:00 29.1 8 Sur 19 Sudeste 0 -- -- 33
2019-08-02 19:00:00 30.1 15 Sudeste 31 Sur 0 -- -- 31
2019-08-02 18:00:00 30.4 11 Sudeste 24 Sur 0 -- -- 30
2019-08-02 17:00:00 29.8 14 Sur 34 Sudeste 0 -- -- 31
2019-08-02 16:00:00 29.7 10 Sudeste 22 Sudeste 0 -- -- 31
2019-08-02 15:00:00 28 12 Sur 22 Sur 0 -- -- 33
2019-08-02 14:00:00 27.5 7 Sudoeste 16 Sur 0 -- -- 34
2019-08-02 13:00:00 26.5 6 Sudoeste 15 Sudeste 0 -- -- 37
2019-08-02 12:00:00 24.7 5 Sudoeste 12 Sur 0 -- -- 43
2019-08-02 11:00:00 22.9 4 Sur 9 Sudoeste 0 -- -- 55
2019-08-02 10:00:00 19.8 3 Sur 6 Sur 0 -- -- 65
2019-08-02 09:00:00 16.7 3 Nordeste 5 Norte 0 -- -- 74
2019-08-02 08:00:00 11.9 5 Norte 6 Norte 0 -- -- 93
2019-08-02 07:00:00 12.6 5 Norte 7 Noroeste 0 -- -- 90
2019-08-02 06:00:00 12.5 4 Norte 8 Sudeste 0 -- -- 89
2019-08-02 05:00:00 13.8 0 Calma 9 Sudoeste 0 -- -- 83
2019-08-02 04:00:00 15.4 6 Sudoeste 12 Sudoeste 0 -- -- 75
2019-08-02 03:00:00 16.3 10 Sudoeste 13 Sudoeste 0 -- -- 71
2019-08-02 02:00:00 16.9 0 Calma 6 Sudoeste 0 -- -- 69
2019-08-02 01:00:00 17.4 6 Noroeste 13 Este 0 -- -- 67
2019-08-02 00:00:00 19.1 9 Sudeste 15 Sudeste 0 -- -- 62
2019-08-01 23:00:00 20.2 4 Nordeste 10 Noroeste 0 -- -- 55
2019-08-01 22:00:00 21.8 8 Nordeste 24 Oeste 0 -- -- 49
2019-08-01 21:00:00 25.2 11 Noroeste 23 Noroeste 0 -- -- 40
2019-08-01 20:00:00 27.3 6 Noroeste 18 Noroeste 0 -- -- 37
2019-08-01 19:00:00 27.1 8 Noroeste 16 Noroeste 0 -- -- 36
2019-08-01 18:00:00 28.6 4 Norte 15 Norte 0 -- -- 31
2019-08-01 17:00:00 26.9 6 Sur 19 Sudeste 0 -- -- 38
2019-08-01 16:00:00 27.4 5 Noroeste 19 Sur 0 -- -- 37
2019-08-01 15:00:00 28.4 9 Sudoeste 18 Nordeste 0 -- -- 34
2019-08-01 14:00:00 27.4 6 Este 14 Sudeste 0 -- -- 39
2019-08-01 13:00:00 25.6 7 Sudeste 16 Sudeste 0 -- -- 43
2019-08-01 12:00:00 23.7 8 Sudeste 16 Sudeste 0 -- -- 48
2019-08-01 11:00:00 22.2 6 Sur 13 Sur 0 -- -- 52
2019-08-01 10:00:00 20.3 3 Sudoeste 6 Sudoeste 0 -- -- 56
2019-08-01 09:00:00 15.6 3 Sur 5 Sur 0 -- -- 68
2019-08-01 08:00:00 11.2 5 Norte 8 Norte 0 -- -- 85
2019-08-01 07:00:00 10.7 5 Norte 11 Norte 0 -- -- 85
2019-08-01 06:00:00 12.1 4 Noroeste 8 Oeste 0 -- -- 79
2019-08-01 05:00:00 11.8 6 Norte 9 Noroeste 0 -- -- 81
2019-08-01 04:00:00 13.5 6 Norte 13 Oeste 0 -- -- 73
2019-08-01 03:00:00 16.9 10 Noroeste 13 Oeste 0 -- -- 62
2019-08-01 02:00:00 16 9 Noroeste 12 Noroeste 0 -- -- 67
2019-08-01 01:00:00 16.7 6 Sudeste 12 Nordeste 0 -- -- 62
2019-08-01 00:00:00 16 7 Nordeste 9 Nordeste 0 -- -- 63
2019-07-31 23:00:00 19 9 Norte 15 Norte 0 -- -- 51
2019-07-31 22:00:00 20.9 5 Norte 9 Sudeste 0 -- -- 38
2019-07-31 21:00:00 23.3 11 Sudeste 18 Sudeste 0 -- -- 34
2019-07-31 20:00:00 26.2 6 Norte 12 Norte 0 -- -- 27
2019-07-31 19:00:00 26.2 5 Nordeste 12 Este 0 -- -- 26
2019-07-31 18:00:00 25.3 6 Sudoeste 18 Este 0 -- -- 31
2019-07-31 17:00:00 24.5 6 Sur 22 Sur 0 -- -- 35
2019-07-31 16:00:00 24 9 Sur 23 Sudeste 0 -- -- 32
2019-07-31 15:00:00 24 9 Sudeste 19 Sudeste 0 -- -- 35
2019-07-31 14:00:00 23.5 6 Sur 15 Sudeste 0 -- -- 38
2019-07-31 13:00:00 22 4 Sudeste 13 Norte 0 -- -- 42
2019-07-31 12:00:00 21.2 4 Norte 12 Nordeste 0 -- -- 48
2019-07-31 11:00:00 19.1 4 Este 12 Norte 0 -- -- 54
2019-07-31 10:00:00 16.4 5 Norte 9 Norte 0 -- -- 63
2019-07-31 09:00:00 14.1 4 Sudoeste 9 Oeste 0 -- -- 73
2019-07-31 08:00:00 9.8 3 Sudoeste 5 Oeste 0 -- -- 87
2019-07-31 07:00:00 9.5 3 Oeste 4 Sudoeste 0 -- -- 88
2019-07-31 06:00:00 9.9 2 Noroeste 6 Oeste 0 -- -- 79
2019-07-31 05:00:00 10.8 2 Sur 4 Sudeste 0 -- -- 75
2019-07-31 04:00:00 10.6 0 Calma 9 Oeste 0 -- -- 75
2019-07-31 03:00:00 10.8 3 Noroeste 10 Norte 0 -- -- 74
2019-07-31 02:00:00 12.2 12 Norte 16 Norte 0 -- -- 71
2019-07-31 01:00:00 13 5 Norte 11 Este 0 -- -- 67
2019-07-31 00:00:00 14.7 8 Sudeste 13 Sudeste 0 -- -- 57
2019-07-30 23:00:00 14.8 4 Nordeste 16 Oeste 0 -- -- 54
2019-07-30 22:00:00 17.3 10 Noroeste 15 Noroeste 0 -- -- 41
2019-07-30 21:00:00 21 9 Noroeste 19 Noroeste 0 -- -- 31
2019-07-30 20:00:00 23 12 Noroeste 30 Noroeste 0 -- -- 26
2019-07-30 19:00:00 23.8 18 Noroeste 28 Noroeste 0 -- -- 24
2019-07-30 18:00:00 24.5 17 Norte 33 Noroeste 0 -- -- 26
2019-07-30 17:00:00 23.9 12 Norte 28 Norte 0 -- -- 33
2019-07-30 16:00:00 22.7 16 Norte 32 Norte 0 -- -- 35
2019-07-30 15:00:00 22.4 12 Norte 27 Norte 0 -- -- 35
2019-07-30 14:00:00 20.6 9 Norte 23 Nordeste 0 -- -- 37
2019-07-30 13:00:00 20 8 Norte 23 Norte 0 -- -- 40
2019-07-30 12:00:00 17.9 11 Nordeste 23 Norte 0 -- -- 47
2019-07-30 11:00:00 17.6 10 Norte 20 Norte 0 -- -- 49
2019-07-30 10:00:00 15.6 11 Norte 18 Norte 0 -- -- 57
2019-07-30 09:00:00 12.6 11 Norte 16 Norte 0 -- -- 70
2019-07-30 08:00:00 8.8 11 Norte 15 Noroeste 0 -- -- 85
2019-07-30 07:00:00 8.1 3 Norte 16 Noroeste 0 -- -- 85
2019-07-30 06:00:00 8.7 7 Noroeste 16 Noroeste 0 -- -- 83
2019-07-30 05:00:00 9.7 8 Nordeste 23 Noroeste 0 -- -- 77
2019-07-30 04:00:00 10.3 16 Noroeste 28 Noroeste 0 -- -- 77
2019-07-30 03:00:00 10.5 13 Noroeste 28 Noroeste 0 -- -- 75
2019-07-30 02:00:00 10.8 9 Noroeste 30 Noroeste 0 -- -- 74
2019-07-30 01:00:00 11.6 15 Noroeste 30 Noroeste 0 -- -- 73
2019-07-30 00:00:00 12.6 14 Noroeste 27 Oeste 0 -- -- 69
2019-07-29 23:00:00 13.1 15 Noroeste 35 Noroeste 0 -- -- 69
2019-07-29 22:00:00 14.3 19 Noroeste 36 Noroeste 0 -- -- 64
2019-07-29 21:00:00 17.4 16 Noroeste 35 Norte 0 -- -- 53
2019-07-29 20:00:00 20 18 Noroeste 39 Noroeste 0 -- -- 40
2019-07-29 19:00:00 20.8 22 Noroeste 37 Oeste 0 -- -- 41
2019-07-29 18:00:00 21.7 19 Oeste 36 Oeste 0 -- -- 39
2019-07-29 17:00:00 22.3 19 Oeste 42 Oeste 0 -- -- 37
2019-07-29 16:00:00 21.8 22 Noroeste 51 Noroeste 0 -- -- 36
2019-07-29 15:00:00 21.2 30 Noroeste 48 Noroeste 0 -- -- 39
2019-07-29 14:00:00 21.1 23 Noroeste 46 Oeste 0 -- -- 42
2019-07-29 13:00:00 20.3 24 Noroeste 42 Noroeste 0 -- -- 44
2019-07-29 12:00:00 19.7 22 Noroeste 39 Oeste 0 -- -- 49
2019-07-29 11:00:00 19.4 17 Noroeste 39 Noroeste 0 -- -- 56
2019-07-29 10:00:00 18.7 14 Oeste 27 Oeste 0 -- -- 63
2019-07-29 09:00:00 15.5 10 Noroeste 20 Oeste 0 -- -- 67
2019-07-29 08:00:00 14.4 6 Noroeste 10 Oeste 0 -- -- 67
2019-07-29 07:00:00 12.9 3 Sur 8 Noroeste 0 -- -- 67
2019-07-29 06:00:00 13.7 7 Sur 14 Oeste 0 -- -- 66
2019-07-29 05:00:00 14.5 4 Noroeste 14 Norte 0 -- -- 66
2019-07-29 04:00:00 14.8 11 Norte 24 Noroeste 0 -- -- 58
2019-07-29 03:00:00 15.5 7 Noroeste 16 Noroeste 0 -- -- 72
2019-07-29 02:00:00 15.7 5 Noroeste 10 Noroeste 0 -- -- 67
2019-07-29 01:00:00 14.2 5 Norte 10 Noroeste 0 -- -- 72
2019-07-29 00:00:00 17 4 Noroeste 10 Noroeste 0 -- -- 61
2019-07-28 23:00:00 18.7 0 Calma 11 Noroeste 0 -- -- 55
2019-07-28 22:00:00 20.3 8 Norte 15 Noroeste 0 -- -- 49
2019-07-28 21:00:00 25.8 8 Norte 13 Este 0 -- -- 38
2019-07-28 20:00:00 26.2 8 Este 16 Sudeste 0 -- -- 37
2019-07-28 19:00:00 27 4 Nordeste 18 Sudeste 0 -- -- 37
2019-07-28 18:00:00 25 12 Sudeste 26 Este 0 -- -- 41
2019-07-28 17:00:00 25.1 16 Sudeste 27 Sur 0 -- -- 41
2019-07-28 16:00:00 23.7 12 Sudeste 25 Sudeste 0 -- -- 43
2019-07-28 15:00:00 22.4 13 Sudeste 28 Sudeste 0 -- -- 45
2019-07-28 14:00:00 20.6 12 Sudeste 27 Sudeste 0 -- -- 51
2019-07-28 13:00:00 19.7 10 Sur 21 Sudeste 0 -- -- 54
2019-07-28 12:00:00 18.4 7 Sudeste 16 Sudeste 0 -- -- 58
2019-07-28 11:00:00 16.7 8 Sur 15 Sur 0 -- -- 60
2019-07-28 10:00:00 16.6 4 Este 10 Nordeste 0 -- -- 63
2019-07-28 09:00:00 11.8 7 Norte 10 Norte 0 -- -- 80
2019-07-28 08:00:00 7.4 5 Norte 6 Norte 0 -- -- 95
2019-07-28 07:00:00 6.7 5 Norte 6 Norte 0 -- -- 95
2019-07-28 06:00:00 7.7 2 Sudoeste 6 Nordeste 0 -- -- 94
2019-07-28 05:00:00 8.6 3 Sudeste 6 Oeste 0 -- -- 89
2019-07-28 04:00:00 9.9 5 Noroeste 8 Noroeste 0 -- -- 85
2019-07-28 03:00:00 9.6 9 Norte 12 Norte 0 -- -- 86
2019-07-28 02:00:00 9.5 6 Norte 9 Nordeste 0 -- -- 88
2019-07-28 01:00:00 11.4 4 Oeste 12 Sudoeste 0 -- -- 79
2019-07-28 00:00:00 12.2 9 Noroeste 13 Noroeste 0 -- -- 77
2019-07-27 23:00:00 14 5 Noroeste 12 Norte 0 -- -- 69
2019-07-26 12:00:00 21.4 14 Norte 24 Norte 0 -- -- 49
2019-07-26 11:00:00 20.7 13 Norte 23 Noroeste 0 -- -- 52
2019-07-26 10:00:00 18.7 14 Noroeste 24 Noroeste 0 -- -- 58
2019-07-26 09:00:00 16.4 0 Calma 10 Norte 0 -- -- 65
2019-07-26 08:00:00 11.8 3 Nordeste 8 Oeste 0 -- -- 82
2019-07-26 07:00:00 11.8 3 Sudoeste 13 Oeste 0 -- -- 84
2019-07-26 06:00:00 12.2 0 Calma 9 Norte 0 -- -- 82
2019-07-26 05:00:00 13.6 7 Norte 22 Oeste 0 -- -- 77
2019-07-26 04:00:00 14.6 9 Noroeste 24 Noroeste 0 -- -- 72
2019-07-26 03:00:00 15.2 12 Noroeste 29 Noroeste 0 -- -- 75
2019-07-26 02:00:00 15.7 16 Noroeste 30 Noroeste 0 -- -- 78
2019-07-26 01:00:00 16.1 13 Noroeste 31 Noroeste 0 -- -- 82
2019-07-26 00:00:00 17.1 14 Noroeste 28 Noroeste 0 -- -- 81